createdAt,value
2017-08-08T00:01:50.416Z,9.60
2017-08-08T00:04:18.801Z,9.50
2017-08-08T00:06:48.351Z,9.60
2017-08-08T00:09:16.741Z,9.60
2017-08-08T00:11:45.125Z,9.60
2017-08-08T00:14:13.631Z,9.60
2017-08-08T00:16:42.006Z,9.60
2017-08-08T00:19:10.427Z,9.50
2017-08-08T00:21:38.849Z,9.50
2017-08-08T00:24:07.326Z,9.50
2017-08-08T00:26:35.624Z,9.40
2017-08-08T00:29:03.969Z,9.50
2017-08-08T00:31:32.423Z,9.50
2017-08-08T00:34:00.788Z,9.40
2017-08-08T00:36:29.077Z,9.40
2017-08-08T00:38:57.430Z,9.40
2017-08-08T00:41:25.723Z,9.30
2017-08-08T00:43:54.022Z,9.20
2017-08-08T00:46:22.343Z,9.30
2017-08-08T00:48:50.689Z,9.40
2017-08-08T00:51:18.983Z,9.40
2017-08-08T00:53:47.326Z,9.40
2017-08-08T00:56:15.631Z,9.40
2017-08-08T00:58:43.976Z,9.40
2017-08-08T01:01:12.375Z,9.40
2017-08-08T01:03:40.817Z,9.40
2017-08-08T01:06:15.179Z,9.40
2017-08-08T01:08:43.891Z,9.50
2017-08-08T01:11:12.281Z,9.40
2017-08-08T01:13:40.654Z,9.40
2017-08-08T01:16:09.057Z,9.40
2017-08-08T01:18:37.445Z,9.40
2017-08-08T01:21:05.864Z,9.30
2017-08-08T01:23:36.433Z,9.30
2017-08-08T01:26:07.357Z,9.20
2017-08-08T01:28:35.763Z,9.20
2017-08-08T01:31:04.127Z,9.20
2017-08-08T01:33:32.530Z,9.30
2017-08-08T01:36:00.918Z,9.30
2017-08-08T01:38:29.318Z,9.20
2017-08-08T01:40:57.826Z,9.20
2017-08-08T01:43:26.168Z,9.20
2017-08-08T01:45:55.615Z,9.20
2017-08-08T01:48:24.001Z,9.10
2017-08-08T01:50:52.295Z,9.00
2017-08-08T01:53:21.589Z,9.10
2017-08-08T01:55:49.960Z,9.10
2017-08-08T01:58:18.353Z,9.10
2017-08-08T02:00:46.682Z,9.20
2017-08-08T02:03:15.243Z,9.20
2017-08-08T02:05:43.612Z,9.20
2017-08-08T02:08:12.056Z,9.20
2017-08-08T02:10:40.347Z,9.30
2017-08-08T02:13:08.643Z,9.30
2017-08-08T02:15:36.970Z,9.30
2017-08-08T02:18:05.324Z,9.30
2017-08-08T02:20:33.664Z,9.40
2017-08-08T02:23:01.993Z,9.40
2017-08-08T02:25:30.977Z,9.40
2017-08-08T02:27:59.260Z,9.30
2017-08-08T02:30:27.548Z,9.40
2017-08-08T02:32:55.919Z,9.50
2017-08-08T02:35:24.467Z,9.50
2017-08-08T02:37:54.771Z,9.60
2017-08-08T02:40:25.269Z,9.60
2017-08-08T02:42:57.118Z,9.70
2017-08-08T02:45:27.727Z,9.70
2017-08-08T02:47:56.173Z,9.70
2017-08-08T02:50:24.511Z,9.70
2017-08-08T02:52:52.911Z,9.60
2017-08-08T02:55:21.286Z,9.60
2017-08-08T02:57:49.814Z,9.50
2017-08-08T03:00:20.237Z,9.50
2017-08-08T03:02:48.754Z,9.40
2017-08-08T03:05:17.100Z,9.50
2017-08-08T03:07:45.476Z,9.50
2017-08-08T03:10:15.489Z,9.50
2017-08-08T03:12:43.786Z,9.50
2017-08-08T03:15:12.852Z,9.70
2017-08-08T03:17:41.173Z,9.70
2017-08-08T03:20:09.465Z,9.70
2017-08-08T03:22:37.798Z,9.60
2017-08-08T03:25:06.108Z,9.70
2017-08-08T03:27:34.395Z,9.70
2017-08-08T03:30:04.006Z,9.70
2017-08-08T03:32:32.292Z,9.80
2017-08-08T03:35:00.846Z,9.70
2017-08-08T03:37:29.947Z,9.70
2017-08-08T03:39:59.050Z,9.70
2017-08-08T03:42:27.344Z,9.70
2017-08-08T03:44:55.781Z,9.60
2017-08-08T03:47:24.100Z,9.60
2017-08-08T03:49:52.401Z,9.70
2017-08-08T03:52:20.734Z,9.80
2017-08-08T03:54:49.173Z,9.80
2017-08-08T03:57:17.560Z,9.90
2017-08-08T03:59:46.009Z,9.90
2017-08-08T04:02:14.661Z,10.00
2017-08-08T04:04:43.015Z,10.00
2017-08-08T04:07:11.456Z,10.00
2017-08-08T04:09:39.849Z,9.90
2017-08-08T04:12:08.994Z,9.90
2017-08-08T04:14:37.386Z,9.90
2017-08-08T04:17:09.549Z,9.90
2017-08-08T04:19:38.026Z,9.80
2017-08-08T04:22:06.451Z,9.90
2017-08-08T04:24:34.878Z,9.80
2017-08-08T04:27:03.258Z,9.80
2017-08-08T04:29:31.657Z,9.90
2017-08-08T04:32:00.056Z,10.00
2017-08-08T04:34:28.454Z,10.00
2017-08-08T04:36:56.851Z,10.20
2017-08-08T04:39:25.933Z,10.40
2017-08-08T04:41:54.222Z,10.30
2017-08-08T04:44:22.596Z,10.40
2017-08-08T04:46:50.897Z,10.60
2017-08-08T04:49:19.236Z,10.50
2017-08-08T04:51:47.532Z,10.50
2017-08-08T04:54:16.236Z,10.60
2017-08-08T04:56:44.627Z,10.70
2017-08-08T04:59:13.003Z,10.90
2017-08-08T05:01:41.442Z,10.90
2017-08-08T05:04:09.840Z,10.90
2017-08-08T05:06:38.241Z,10.80
2017-08-08T05:09:06.728Z,10.90
2017-08-08T05:11:35.276Z,10.80
2017-08-08T05:14:03.693Z,10.90
2017-08-08T05:16:32.031Z,11.00
2017-08-08T05:19:00.351Z,11.10
2017-08-08T05:21:28.693Z,11.20
2017-08-08T05:23:57.010Z,11.30
2017-08-08T05:26:25.359Z,11.30
2017-08-08T05:28:53.690Z,11.40
2017-08-08T05:31:22.849Z,11.60
2017-08-08T05:33:51.200Z,11.60
2017-08-08T05:36:19.499Z,11.90
2017-08-08T05:38:48.552Z,11.90
2017-08-08T05:41:17.663Z,12.00
2017-08-08T05:43:46.025Z,11.90
2017-08-08T05:46:14.973Z,12.00
2017-08-08T05:48:43.452Z,12.00
2017-08-08T05:51:11.837Z,12.00
2017-08-08T05:53:40.227Z,12.10
2017-08-08T05:56:08.609Z,12.20
2017-08-08T05:58:37.298Z,12.30
2017-08-08T06:01:05.678Z,12.30
2017-08-08T06:03:34.951Z,12.40
2017-08-08T06:06:03.299Z,12.60
2017-08-08T06:08:32.283Z,12.90
2017-08-08T06:11:00.616Z,12.90
2017-08-08T06:13:28.914Z,13.00
2017-08-08T06:15:57.256Z,13.00
2017-08-08T06:18:25.593Z,13.30
2017-08-08T06:20:54.102Z,13.50
2017-08-08T06:23:22.468Z,13.70
2017-08-08T06:25:50.785Z,13.90
2017-08-08T06:28:19.121Z,14.10
2017-08-08T06:30:47.511Z,14.30
2017-08-08T06:33:15.984Z,14.50
2017-08-08T06:35:44.275Z,14.70
2017-08-08T06:38:12.578Z,14.90
2017-08-08T06:40:41.675Z,14.80
2017-08-08T06:43:10.832Z,15.10
2017-08-08T06:45:39.213Z,15.10
2017-08-08T06:48:07.609Z,15.20
2017-08-08T06:50:36.021Z,15.30
2017-08-08T06:53:04.412Z,15.50
2017-08-08T06:55:32.762Z,15.70
2017-08-08T06:58:01.157Z,16.10
2017-08-08T07:00:30.474Z,16.50
2017-08-08T07:02:58.876Z,16.70
2017-08-08T07:05:27.232Z,16.90
2017-08-08T07:07:55.623Z,17.30
2017-08-08T07:10:24.001Z,17.70
2017-08-08T07:12:52.389Z,18.00
2017-08-08T07:15:20.810Z,18.10
2017-08-08T07:17:49.174Z,18.20
2017-08-08T07:20:18.362Z,18.10
2017-08-08T07:22:46.746Z,18.10
2017-08-08T07:25:15.101Z,18.20
2017-08-08T07:27:43.441Z,18.20
2017-08-08T07:30:11.823Z,18.20
2017-08-08T07:32:40.218Z,18.20
2017-08-08T07:35:08.836Z,18.40
2017-08-08T07:37:37.246Z,18.40
2017-08-08T07:40:05.639Z,18.40
2017-08-08T07:42:34.043Z,18.40
2017-08-08T07:45:02.403Z,18.50
2017-08-08T07:47:30.809Z,18.60
2017-08-08T07:49:59.201Z,18.70
2017-08-08T07:52:27.537Z,18.50
2017-08-08T07:54:55.920Z,18.50
2017-08-08T07:57:26.167Z,18.60
2017-08-08T07:59:54.570Z,18.60
2017-08-08T08:02:22.931Z,18.50
2017-08-08T08:04:51.284Z,18.60
2017-08-08T08:07:20.345Z,18.50
2017-08-08T08:09:48.639Z,18.50
2017-08-08T08:12:17.132Z,18.60
2017-08-08T08:14:47.838Z,18.60
2017-08-08T08:17:16.311Z,18.80
2017-08-08T08:19:44.765Z,18.90
2017-08-08T08:22:13.267Z,19.00
2017-08-08T08:24:41.657Z,19.40
2017-08-08T08:27:10.012Z,19.90
2017-08-08T08:29:38.398Z,19.90
2017-08-08T08:32:06.866Z,20.00
2017-08-08T08:34:35.277Z,20.00
2017-08-08T08:37:03.684Z,19.90
2017-08-08T08:39:32.024Z,19.80
2017-08-08T08:42:00.572Z,19.70
2017-08-08T08:44:28.900Z,19.80
2017-08-08T08:46:57.208Z,19.90
2017-08-08T08:49:25.589Z,19.90
2017-08-08T08:51:54.753Z,19.70
2017-08-08T08:54:23.127Z,19.60
2017-08-08T08:56:51.578Z,19.60
2017-08-08T08:59:20.940Z,19.60
2017-08-08T09:01:49.276Z,19.40
2017-08-08T09:04:17.604Z,19.50
2017-08-08T09:06:47.894Z,19.40
2017-08-08T09:09:16.180Z,19.60
2017-08-08T09:11:44.659Z,19.50
2017-08-08T09:14:13.064Z,20.00
2017-08-08T09:16:41.475Z,20.30
2017-08-08T09:19:09.825Z,20.20
2017-08-08T09:21:38.180Z,20.40
2017-08-08T09:24:06.766Z,20.10
2017-08-08T09:26:35.145Z,19.90
2017-08-08T09:29:05.862Z,20.00
2017-08-08T09:31:34.251Z,20.00
2017-08-08T09:34:02.601Z,20.00
2017-08-08T09:36:31.071Z,19.80
2017-08-08T09:38:59.461Z,19.80
2017-08-08T09:41:27.783Z,19.80
2017-08-08T09:43:56.182Z,19.70
2017-08-08T09:46:24.593Z,19.70
2017-08-08T09:48:53.100Z,19.50
2017-08-08T09:51:21.436Z,19.40
2017-08-08T09:53:49.773Z,19.40
2017-08-08T09:56:18.173Z,19.50
2017-08-08T09:58:46.583Z,19.50
2017-08-08T10:01:14.963Z,19.30
2017-08-08T10:03:43.341Z,19.30
2017-08-08T10:06:11.913Z,19.00
2017-08-08T10:08:40.240Z,18.70
2017-08-08T10:11:08.615Z,18.70
2017-08-08T10:13:36.968Z,18.60
2017-08-08T10:16:05.380Z,18.30
2017-08-08T10:18:33.748Z,18.40
2017-08-08T10:21:03.934Z,18.50
2017-08-08T10:26:23.941Z,18.30
2017-08-08T10:28:52.289Z,18.30
2017-08-08T10:31:21.384Z,18.50
2017-08-08T10:33:49.686Z,18.40
2017-08-08T10:36:18.779Z,18.60
2017-08-08T10:38:48.813Z,18.60
2017-08-08T10:41:17.125Z,18.50
2017-08-08T10:43:45.456Z,18.60
2017-08-08T10:46:13.797Z,18.80
2017-08-08T10:48:42.132Z,18.50
2017-08-08T10:51:10.439Z,18.50
2017-08-08T10:53:39.720Z,18.50
2017-08-08T10:56:12.390Z,18.50
2017-08-08T10:58:40.720Z,18.30
2017-08-08T11:01:09.123Z,18.30
2017-08-08T11:03:37.499Z,18.40
2017-08-08T11:06:05.803Z,18.40
2017-08-08T11:08:34.099Z,18.40
2017-08-08T11:11:02.446Z,18.40
2017-08-08T11:13:30.750Z,18.40
2017-08-08T11:15:59.928Z,18.60
2017-08-08T11:18:28.320Z,18.40
2017-08-08T11:20:56.653Z,18.50
2017-08-08T11:23:25.080Z,18.40
2017-08-08T11:25:54.265Z,17.70
2017-08-08T11:28:22.664Z,17.70
2017-08-08T11:30:51.042Z,17.50
2017-08-08T11:33:19.415Z,17.20
2017-08-08T11:35:47.806Z,17.00
2017-08-08T11:38:16.355Z,16.80
2017-08-08T11:40:44.763Z,16.80
2017-08-08T11:43:13.148Z,16.70
2017-08-08T11:45:41.551Z,16.80
2017-08-08T11:48:09.922Z,16.80
2017-08-08T11:50:38.376Z,16.60
2017-08-08T11:53:06.766Z,16.60
2017-08-08T11:55:35.262Z,16.60
2017-08-08T11:58:04.635Z,16.50
2017-08-08T12:00:33.391Z,16.60
2017-08-08T12:03:03.862Z,16.60
2017-08-08T12:05:32.252Z,16.50
2017-08-08T12:08:10.271Z,16.40
2017-08-08T12:10:40.279Z,16.30
2017-08-08T12:13:08.649Z,16.30
2017-08-08T12:15:36.956Z,16.20
2017-08-08T12:18:05.243Z,16.30
2017-08-08T12:20:33.587Z,16.20
2017-08-08T12:23:01.878Z,16.10
2017-08-08T12:25:30.411Z,16.10
2017-08-08T12:27:58.752Z,16.00
2017-08-08T12:30:27.091Z,16.00
2017-08-08T12:32:55.445Z,16.00
2017-08-08T12:35:23.976Z,15.90
2017-08-08T12:37:52.357Z,16.00
2017-08-08T12:40:20.767Z,16.00
2017-08-08T12:42:49.103Z,16.10
2017-08-08T12:45:17.501Z,16.30
2017-08-08T12:47:45.889Z,16.40
2017-08-08T12:50:14.268Z,16.50
2017-08-08T12:52:42.638Z,16.60
2017-08-08T12:55:11.062Z,16.90
2017-08-08T12:57:39.437Z,17.20
2017-08-08T13:00:07.822Z,17.30
2017-08-08T13:02:36.920Z,17.50
2017-08-08T13:05:05.324Z,17.50
2017-08-08T13:07:33.642Z,17.60
2017-08-08T13:10:01.936Z,17.80
2017-08-08T13:12:30.294Z,17.90
2017-08-08T13:14:58.619Z,18.10
2017-08-08T13:17:26.948Z,18.00
2017-08-08T13:19:55.278Z,18.10
2017-08-08T13:22:23.579Z,17.90
2017-08-08T13:24:51.922Z,17.80
2017-08-08T13:27:20.302Z,17.70
2017-08-08T13:29:48.629Z,17.50
2017-08-08T13:32:16.909Z,17.40
2017-08-08T13:34:45.252Z,17.30
2017-08-08T13:37:13.589Z,17.10
2017-08-08T13:39:41.892Z,17.10
2017-08-08T13:42:10.254Z,17.10
2017-08-08T13:44:38.614Z,16.90
2017-08-08T13:47:07.524Z,17.00
2017-08-08T13:49:35.922Z,17.10
2017-08-08T13:52:04.292Z,17.20
2017-08-08T13:54:32.676Z,17.10
2017-08-08T13:57:03.191Z,16.90
2017-08-08T13:59:31.495Z,16.80
2017-08-08T14:01:59.835Z,16.80
2017-08-08T14:04:28.138Z,16.70
2017-08-08T14:06:56.498Z,16.80
2017-08-08T14:09:24.796Z,16.80
2017-08-08T14:11:53.141Z,16.80
2017-08-08T14:14:21.555Z,17.00
2017-08-08T14:16:49.904Z,17.10
2017-08-08T14:19:19.460Z,17.20
2017-08-08T14:21:47.783Z,17.10
2017-08-08T14:24:16.145Z,17.20
2017-08-08T14:26:44.524Z,17.30
2017-08-08T14:29:12.924Z,17.40
2017-08-08T14:31:41.312Z,17.30
2017-08-08T14:34:09.697Z,17.40
2017-08-08T14:36:38.077Z,17.40
2017-08-08T14:39:06.677Z,17.30
2017-08-08T14:41:35.062Z,17.30
2017-08-08T14:44:03.945Z,17.20
2017-08-08T14:46:32.340Z,17.20
2017-08-08T14:49:00.694Z,17.10
2017-08-08T14:51:29.034Z,17.10
2017-08-08T14:53:57.437Z,17.10
2017-08-08T14:56:25.807Z,17.00
2017-08-08T14:58:54.193Z,16.70
2017-08-08T15:01:22.570Z,16.60
2017-08-08T15:03:50.969Z,16.60
2017-08-08T15:06:19.376Z,16.60
2017-08-08T15:08:47.766Z,16.60
2017-08-08T15:11:16.161Z,16.60
2017-08-08T15:13:44.525Z,16.80
2017-08-08T15:16:12.978Z,16.70
2017-08-08T15:18:41.289Z,16.70
2017-08-08T15:21:09.598Z,16.60
2017-08-08T15:23:38.699Z,16.60
2017-08-08T15:26:07.032Z,16.60
2017-08-08T15:28:35.330Z,16.60
2017-08-08T15:31:04.628Z,16.50
2017-08-08T15:33:33.022Z,16.60
2017-08-08T15:36:01.386Z,16.70
2017-08-08T15:38:29.819Z,17.00
2017-08-08T15:40:58.645Z,17.30
2017-08-08T15:43:26.950Z,17.80
2017-08-08T15:45:56.023Z,17.60
2017-08-08T15:48:24.468Z,17.50
2017-08-08T15:50:52.828Z,17.60
2017-08-08T15:53:21.136Z,17.70
2017-08-08T15:55:50.074Z,17.80
2017-08-08T15:58:18.448Z,17.60
2017-08-08T16:00:46.817Z,17.70
2017-08-08T16:03:16.021Z,17.80
2017-08-08T16:05:44.360Z,17.80
2017-08-08T16:08:12.677Z,17.80
2017-08-08T16:10:41.009Z,18.00
2017-08-08T16:13:09.317Z,17.50
2017-08-08T16:15:37.666Z,17.40
2017-08-08T16:18:06.023Z,17.40
2017-08-08T16:20:34.336Z,17.30
2017-08-08T16:23:02.696Z,17.30
2017-08-08T16:25:31.039Z,17.40
2017-08-08T16:28:02.901Z,17.10
2017-08-08T16:30:31.241Z,17.20
2017-08-08T16:33:00.572Z,17.30
2017-08-08T16:35:28.862Z,17.20
2017-08-08T16:37:57.161Z,17.50
2017-08-08T16:40:25.509Z,17.60
2017-08-08T16:42:53.814Z,17.50
2017-08-08T16:45:22.369Z,17.40
2017-08-08T16:47:50.728Z,17.50
2017-08-08T16:50:19.107Z,17.50
2017-08-08T16:52:47.392Z,17.20
2017-08-08T16:55:15.725Z,17.20
2017-08-08T16:57:44.800Z,17.30
2017-08-08T17:00:13.200Z,17.50
2017-08-08T17:02:41.712Z,18.20
2017-08-08T17:05:10.086Z,18.60
2017-08-08T17:07:38.531Z,18.20
2017-08-08T17:10:07.500Z,17.90
2017-08-08T17:12:35.866Z,17.80
2017-08-08T17:15:04.201Z,17.90
2017-08-08T17:17:32.585Z,17.70
2017-08-08T17:20:04.913Z,17.50
2017-08-08T17:22:33.332Z,17.40
2017-08-08T17:25:01.728Z,17.40
2017-08-08T17:27:30.166Z,17.40
2017-08-08T17:29:58.544Z,17.40
2017-08-08T17:32:26.926Z,17.40
2017-08-08T17:34:56.836Z,17.50
2017-08-08T17:37:25.188Z,17.50
2017-08-08T17:39:53.545Z,17.60
2017-08-08T17:42:21.907Z,17.60
2017-08-08T17:44:50.286Z,17.40
2017-08-08T17:47:18.650Z,17.30
2017-08-08T17:49:48.016Z,17.20
2017-08-08T17:52:16.347Z,17.20
2017-08-08T17:54:45.061Z,17.10
2017-08-08T17:57:13.360Z,17.10
2017-08-08T17:59:41.693Z,17.10
2017-08-08T18:02:10.024Z,17.10
2017-08-08T18:04:38.377Z,17.10
2017-08-08T18:07:08.201Z,17.20
2017-08-08T18:09:37.277Z,17.20
2017-08-08T18:12:05.615Z,17.20
2017-08-08T18:14:33.935Z,17.20
2017-08-08T18:17:02.240Z,17.20
2017-08-08T18:19:30.636Z,17.20
2017-08-08T18:21:59.014Z,17.10
2017-08-08T18:24:27.414Z,17.00
2017-08-08T18:26:55.778Z,17.00
2017-08-08T18:29:24.187Z,17.00
2017-08-08T18:31:52.644Z,17.00
2017-08-08T18:34:21.053Z,16.90
2017-08-08T18:36:49.448Z,16.90
2017-08-08T18:39:17.816Z,16.90
2017-08-08T18:41:46.154Z,16.90
2017-08-08T18:44:14.544Z,16.80
2017-08-08T18:46:46.127Z,16.80
2017-08-08T18:49:14.507Z,16.80
2017-08-08T18:51:42.975Z,16.80
2017-08-08T18:54:11.359Z,16.80
2017-08-08T18:56:39.781Z,16.70
2017-08-08T18:59:08.181Z,16.60
2017-08-08T19:01:36.477Z,16.60
2017-08-08T19:04:04.800Z,16.40
2017-08-08T19:06:33.143Z,16.50
2017-08-08T19:09:01.436Z,16.40
2017-08-08T19:11:29.827Z,16.30
2017-08-08T19:13:58.154Z,16.30
2017-08-08T19:16:26.449Z,16.30
2017-08-08T19:18:54.780Z,16.20
2017-08-08T19:21:26.749Z,16.20
2017-08-08T19:23:55.090Z,16.10
2017-08-08T19:26:23.395Z,16.00
2017-08-08T19:28:52.540Z,16.10
2017-08-08T19:31:20.850Z,16.10
2017-08-08T19:33:49.198Z,16.00
2017-08-08T19:36:17.500Z,16.00
2017-08-08T19:38:45.836Z,16.00
2017-08-08T19:41:14.996Z,16.00
2017-08-08T19:43:43.354Z,16.00
2017-08-08T19:46:11.642Z,16.10
2017-08-08T19:48:39.932Z,16.00
2017-08-08T19:51:09.041Z,16.00
2017-08-08T19:53:37.339Z,16.00
2017-08-08T19:56:08.228Z,16.10
2017-08-08T19:58:36.560Z,16.10
2017-08-08T20:01:04.860Z,16.00
2017-08-08T20:03:33.944Z,15.90
2017-08-08T20:06:03.112Z,15.90
2017-08-08T20:08:31.412Z,15.90
2017-08-08T20:10:59.699Z,15.80
2017-08-08T20:13:28.045Z,15.60
2017-08-08T20:15:57.120Z,15.50
2017-08-08T20:18:25.414Z,15.40
2017-08-08T20:20:53.739Z,15.40
2017-08-08T20:23:22.805Z,15.20
2017-08-08T20:25:51.132Z,15.20
2017-08-08T20:28:19.589Z,15.20
2017-08-08T20:30:47.877Z,15.10
2017-08-08T20:33:16.188Z,15.00
2017-08-08T20:35:44.533Z,14.90
2017-08-08T20:38:12.844Z,14.90
2017-08-08T20:40:41.194Z,14.80
2017-08-08T20:43:09.491Z,14.80
2017-08-08T20:45:37.840Z,14.70
2017-08-08T20:48:06.159Z,14.70
2017-08-08T20:50:34.453Z,14.60
2017-08-08T20:53:02.786Z,14.60
2017-08-08T20:55:31.077Z,14.50
2017-08-08T20:57:59.422Z,14.40
2017-08-08T21:00:27.776Z,14.40
2017-08-08T21:02:56.960Z,14.30
2017-08-08T21:05:25.329Z,14.20
2017-08-08T21:07:53.845Z,14.20
2017-08-08T21:10:22.235Z,14.20
2017-08-08T21:12:50.620Z,14.10
2017-08-08T21:15:19.944Z,14.10
2017-08-08T21:17:48.340Z,14.10
2017-08-08T21:20:16.758Z,14.00
2017-08-08T21:22:45.132Z,14.00
2017-08-08T21:25:13.510Z,14.00
2017-08-08T21:27:41.971Z,14.00
2017-08-08T21:30:10.357Z,13.90
2017-08-08T21:32:38.738Z,13.90
2017-08-08T21:35:08.137Z,13.70
2017-08-08T21:37:36.521Z,13.70
2017-08-08T21:40:04.885Z,13.70
2017-08-08T21:42:33.989Z,13.70
2017-08-08T21:45:02.365Z,13.70
2017-08-08T21:47:30.759Z,13.70
2017-08-08T21:49:59.156Z,13.60
2017-08-08T21:52:27.522Z,13.50
2017-08-08T21:54:55.820Z,13.40
2017-08-08T21:57:24.154Z,13.40
2017-08-08T21:59:52.459Z,13.40
2017-08-08T22:02:21.668Z,13.30
2017-08-08T22:04:49.972Z,13.30
2017-08-08T22:07:19.083Z,13.10
2017-08-08T22:09:47.382Z,13.20
2017-08-08T22:12:15.675Z,13.10
2017-08-08T22:14:44.007Z,13.00
2017-08-08T22:17:12.308Z,13.00
2017-08-08T22:19:40.654Z,13.00
2017-08-08T22:22:08.943Z,13.00
2017-08-08T22:24:37.240Z,12.90
2017-08-08T22:27:05.563Z,12.90
2017-08-08T22:29:33.868Z,12.80
2017-08-08T22:32:02.199Z,12.80
2017-08-08T22:34:30.495Z,12.70
2017-08-08T22:36:58.791Z,12.60
2017-08-08T22:39:27.126Z,12.60
2017-08-08T22:41:56.223Z,12.60
2017-08-08T22:44:24.560Z,12.60
2017-08-08T22:46:53.156Z,12.60
2017-08-08T22:49:21.471Z,12.60
2017-08-08T22:51:49.759Z,12.50
2017-08-08T22:54:18.375Z,12.60
2017-08-08T22:56:46.664Z,12.60
2017-08-08T22:59:15.006Z,12.60
2017-08-08T23:01:43.307Z,12.50
2017-08-08T23:04:11.621Z,12.40
2017-08-08T23:06:39.981Z,12.30
2017-08-08T23:09:08.268Z,12.30
2017-08-08T23:11:36.599Z,12.20
2017-08-08T23:14:04.928Z,12.10
2017-08-08T23:16:33.223Z,12.10
2017-08-08T23:19:01.684Z,12.10
2017-08-08T23:21:29.968Z,12.20
2017-08-08T23:23:58.268Z,12.20
2017-08-08T23:26:26.645Z,12.20
2017-08-08T23:28:54.934Z,12.20
2017-08-08T23:31:23.225Z,12.10
2017-08-08T23:33:51.562Z,12.10
2017-08-08T23:36:19.860Z,12.10
2017-08-08T23:38:48.205Z,12.20
2017-08-08T23:41:17.196Z,12.10
2017-08-08T23:43:45.473Z,12.10
2017-08-08T23:46:13.799Z,12.00
2017-08-08T23:48:42.127Z,12.00
2017-08-08T23:51:10.421Z,11.90
2017-08-08T23:53:38.755Z,11.90
2017-08-08T23:56:07.082Z,11.80
2017-08-08T23:58:35.423Z,11.70
